Time;durP1;ratioP1;P1;durP2;ratioP2;P2;SDS_P1;SDS_P2;PMS_P1;PMS_P2;Temp;Humidity;BMP_temperature;BMP_pressure;BME280_temperature;BME280_humidity;BME280_pressure;Samples;Min_cycle;Max_cycle;Signal;HPM_P1;HPM_P2
2021/09/07 00:00:11;;;;;;;6.40;5.72;;;17.40;92.70;;;;;;5029562;28;20046;-79
2021/09/07 00:02:41;;;;;;;10.70;6.28;;;17.40;92.80;;;;;;5050306;28;20040;-79
2021/09/07 00:05:12;;;;;;;8.43;5.78;;;17.40;92.80;;;;;;5051247;28;20051;-80
2021/09/07 00:07:39;;;;;;;6.88;5.30;;;17.50;92.90;;;;;;5082259;28;20043;-76
2021/09/07 00:10:08;;;;;;;7.15;5.20;;;17.50;92.80;;;;;;5064581;28;20491;-76
2021/09/07 00:12:37;;;;;;;8.05;5.10;;;17.50;92.80;;;;;;5082172;28;20032;-76
2021/09/07 00:15:06;;;;;;;7.15;5.65;;;17.60;92.80;;;;;;5062668;28;20048;-76
2021/09/07 00:17:32;;;;;;;7.03;5.25;;;17.60;92.80;;;;;;5063727;28;20043;-76
2021/09/07 00:19:59;;;;;;;6.53;5.30;;;17.60;92.70;;;;;;5080510;28;20028;-76
2021/09/07 00:22:26;;;;;;;7.10;5.32;;;17.70;92.70;;;;;;5067469;28;20032;-76
2021/09/07 00:24:53;;;;;;;8.32;5.90;;;17.70;92.70;;;;;;5065347;28;20036;-76
2021/09/07 00:27:19;;;;;;;7.85;5.93;;;17.80;92.70;;;;;;5085034;28;20490;-76
2021/09/07 00:29:46;;;;;;;9.10;6.18;;;17.80;92.70;;;;;;5080750;28;20032;-76
2021/09/07 00:32:13;;;;;;;8.55;6.18;;;17.80;92.70;;;;;;5051130;28;20040;-79
2021/09/07 00:34:40;;;;;;;8.35;6.55;;;17.90;92.80;;;;;;5069181;28;20044;-79
2021/09/07 00:37:06;;;;;;;8.85;5.82;;;17.90;92.80;;;;;;5051997;28;20051;-80
2021/09/07 00:39:32;;;;;;;8.13;5.78;;;17.90;92.80;;;;;;5065841;28;20047;-80
2021/09/07 00:41:59;;;;;;;7.32;5.72;;;17.90;92.80;;;;;;5053606;28;20036;-80
2021/09/07 00:44:25;;;;;;;7.30;5.95;;;17.90;92.80;;;;;;5051963;28;20044;-79
2021/09/07 00:47:01;;;;;;;9.52;5.97;;;17.90;92.90;;;;;;5046701;28;20037;-76
2021/09/07 00:49:29;;;;;;;9.60;5.82;;;17.90;92.90;;;;;;5085989;28;20036;-76
2021/09/07 00:51:56;;;;;;;9.68;6.40;;;17.90;92.90;;;;;;5088087;28;20051;-76
2021/09/07 00:54:28;;;;;;;7.75;5.78;;;17.90;93.00;;;;;;5085310;28;20037;-76
2021/09/07 00:56:56;;;;;;;8.75;6.32;;;17.90;93.10;;;;;;5087082;28;20036;-76
2021/09/07 00:59:23;;;;;;;8.82;6.72;;;17.90;93.10;;;;;;5083269;28;20032;-76
2021/09/07 01:01:50;;;;;;;10.48;6.50;;;17.90;93.10;;;;;;5067650;28;20028;-76
2021/09/07 01:04:17;;;;;;;8.20;6.55;;;18.00;93.20;;;;;;5034341;28;20448;-76
2021/09/07 01:06:44;;;;;;;8.40;6.88;;;18.00;93.30;;;;;;5083722;28;20499;-77
2021/09/07 01:09:12;;;;;;;8.40;6.65;;;18.00;93.30;;;;;;5084481;28;20738;-76
2021/09/07 01:11:40;;;;;;;9.90;7.20;;;18.00;93.30;;;;;;5086976;28;20035;-76
2021/09/07 01:14:07;;;;;;;8.38;6.45;;;18.00;93.30;;;;;;5067087;28;20032;-76
2021/09/07 01:16:36;;;;;;;9.57;6.68;;;18.00;93.30;;;;;;5082735;28;20040;-76
2021/09/07 01:19:05;;;;;;;10.95;8.38;;;18.00;93.40;;;;;;5066271;28;20067;-76
2021/09/07 01:21:32;;;;;;;11.20;7.57;;;18.10;93.40;;;;;;5084649;28;20048;-76
2021/09/07 01:23:58;;;;;;;9.27;6.80;;;18.10;93.40;;;;;;5086744;28;20058;-76
2021/09/07 01:26:25;;;;;;;9.02;6.95;;;18.10;93.50;;;;;;5086198;28;20043;-76
2021/09/07 01:28:52;;;;;;;10.52;6.85;;;18.10;93.50;;;;;;5083479;28;20037;-76
2021/09/07 01:31:21;;;;;;;9.32;6.93;;;18.10;93.50;;;;;;5085038;28;20510;-76
2021/09/07 01:33:48;;;;;;;9.70;7.22;;;18.10;93.40;;;;;;5068593;28;20036;-76
2021/09/07 01:36:15;;;;;;;9.82;6.80;;;18.10;93.40;;;;;;5067396;28;20039;-76
2021/09/07 01:38:42;;;;;;;8.50;6.45;;;18.10;93.40;;;;;;5085800;28;20059;-80
2021/09/07 01:41:09;;;;;;;9.43;7.03;;;18.10;93.40;;;;;;5069358;28;20047;-81
2021/09/07 01:43:35;;;;;;;10.65;6.85;;;18.10;93.50;;;;;;5035887;28;20043;-80
2021/09/07 01:46:02;;;;;;;9.27;7.22;;;18.00;93.50;;;;;;5047213;28;20402;-77
2021/09/07 01:48:28;;;;;;;9.80;6.88;;;18.00;93.60;;;;;;5063940;28;20048;-77
2021/09/07 01:50:56;;;;;;;11.07;6.85;;;18.00;93.60;;;;;;5084569;28;20052;-77
2021/09/07 01:53:23;;;;;;;10.85;7.78;;;17.90;93.60;;;;;;5085439;28;20044;-77
2021/09/07 01:55:50;;;;;;;14.57;11.90;;;17.80;93.70;;;;;;5060810;28;20039;-77
2021/09/07 01:58:17;;;;;;;13.60;9.90;;;17.80;93.80;;;;;;5064172;28;20059;-77
2021/09/07 02:00:44;;;;;;;12.52;10.32;;;17.80;93.80;;;;;;5065657;28;20073;-77
2021/09/07 02:03:10;;;;;;;14.15;8.93;;;17.70;93.80;;;;;;5083040;28;20043;-78
2021/09/07 02:05:41;;;;;;;10.45;7.95;;;17.70;93.80;;;;;;5084978;28;20040;-78
2021/09/07 02:08:08;;;;;;;9.07;7.68;;;17.70;93.80;;;;;;5064549;28;20035;-78
2021/09/07 02:10:35;;;;;;;10.00;7.22;;;17.70;93.80;;;;;;5064717;28;20036;-78
2021/09/07 02:13:02;;;;;;;11.18;7.30;;;17.80;93.90;;;;;;5081932;28;20383;-78
2021/09/07 02:15:31;;;;;;;8.60;6.78;;;17.80;93.90;;;;;;5063163;28;20031;-78
2021/09/07 02:17:58;;;;;;;10.10;7.43;;;17.80;93.90;;;;;;5081813;28;20074;-78
2021/09/07 02:20:24;;;;;;;10.70;7.43;;;17.80;93.90;;;;;;5082322;28;20044;-78
2021/09/07 02:22:52;;;;;;;10.48;7.57;;;17.80;94.00;;;;;;5083804;28;20051;-78
2021/09/07 02:25:20;;;;;;;12.35;8.43;;;17.80;94.00;;;;;;5086797;28;20467;-81
2021/09/07 02:27:49;;;;;;;10.13;7.00;;;17.90;94.00;;;;;;5086273;28;20036;-81
2021/09/07 02:30:15;;;;;;;9.82;7.20;;;17.90;94.00;;;;;;5034397;28;20040;-81
2021/09/07 02:32:42;;;;;;;11.30;8.38;;;17.90;94.00;;;;;;5051349;28;20040;-81
2021/09/07 02:35:09;;;;;;;13.52;8.73;;;17.90;94.00;;;;;;5036021;28;20058;-81
2021/09/07 02:37:35;;;;;;;13.27;8.80;;;17.90;94.00;;;;;;5037887;28;20059;-81
2021/09/07 02:40:03;;;;;;;12.50;8.43;;;17.90;94.00;;;;;;5034836;28;20506;-81
2021/09/07 02:42:29;;;;;;;11.43;8.40;;;17.90;94.00;;;;;;5052636;28;20054;-81
2021/09/07 02:44:56;;;;;;;11.25;8.07;;;17.90;94.00;;;;;;5068524;28;21210;-81
2021/09/07 02:47:24;;;;;;;11.60;8.00;;;17.90;94.00;;;;;;5034206;28;20388;-81
2021/09/07 02:49:52;;;;;;;10.70;7.95;;;17.90;94.00;;;;;;5032790;28;20040;-81
2021/09/07 02:52:18;;;;;;;11.43;8.75;;;17.90;94.00;;;;;;5086879;28;20028;-82
2021/09/07 02:54:46;;;;;;;11.77;8.50;;;17.90;94.10;;;;;;5084390;28;20487;-81
2021/09/07 02:57:13;;;;;;;10.48;8.35;;;17.90;94.20;;;;;;5066628;28;20036;-81
2021/09/07 02:59:41;;;;;;;11.73;8.55;;;17.90;94.30;;;;;;5048267;28;20051;-81
2021/09/07 03:02:08;;;;;;;14.90;8.82;;;17.90;94.40;;;;;;5086699;28;20020;-81
2021/09/07 03:04:36;;;;;;;13.20;8.85;;;17.80;94.40;;;;;;5051675;28;20040;-77
2021/09/07 03:07:05;;;;;;;13.77;8.65;;;17.90;94.40;;;;;;5083153;28;20040;-78
2021/09/07 03:09:31;;;;;;;10.90;8.48;;;17.90;94.40;;;;;;5083207;28;20048;-78
2021/09/07 03:11:58;;;;;;;10.80;7.75;;;17.80;94.50;;;;;;5084885;28;20036;-77
2021/09/07 03:14:25;;;;;;;10.65;8.05;;;17.80;94.50;;;;;;5084425;28;20042;-78
2021/09/07 03:16:52;;;;;;;11.57;8.77;;;17.80;94.60;;;;;;5064462;28;20075;-81
2021/09/07 03:19:19;;;;;;;10.85;8.73;;;17.80;94.60;;;;;;5066022;28;20044;-81
2021/09/07 03:21:46;;;;;;;12.25;8.95;;;17.80;94.60;;;;;;5066934;28;20051;-81
2021/09/07 03:24:13;;;;;;;11.60;8.75;;;17.70;94.60;;;;;;5084891;28;20039;-81
2021/09/07 03:26:40;;;;;;;10.15;8.52;;;17.70;94.60;;;;;;5083112;28;20040;-81
2021/09/07 03:29:07;;;;;;;13.88;9.80;;;17.70;94.70;;;;;;5048229;28;20048;-81
2021/09/07 03:31:35;;;;;;;13.75;9.35;;;17.70;94.70;;;;;;5055124;28;20059;-81
2021/09/07 03:34:09;;;;;;;13.60;9.52;;;17.70;94.80;;;;;;5049093;28;20031;-76
2021/09/07 03:36:35;;;;;;;14.43;10.20;;;17.70;94.80;;;;;;5080915;28;21163;-77
2021/09/07 03:39:01;;;;;;;13.73;9.77;;;17.60;94.90;;;;;;5063925;28;20043;-77
2021/09/07 03:41:28;;;;;;;13.02;9.55;;;17.60;95.00;;;;;;5064176;28;20042;-76
2021/09/07 03:43:55;;;;;;;13.35;9.75;;;17.60;95.10;;;;;;5082967;28;20501;-76
2021/09/07 03:46:22;;;;;;;14.02;10.02;;;17.50;95.10;;;;;;5080641;28;20047;-76
2021/09/07 03:48:49;;;;;;;14.18;11.07;;;17.60;95.20;;;;;;5078184;28;20033;-76
2021/09/07 03:51:17;;;;;;;15.82;11.35;;;17.50;95.30;;;;;;5062044;28;20048;-75
2021/09/07 03:53:46;;;;;;;16.42;13.32;;;17.50;95.50;;;;;;5047516;28;20024;-76
2021/09/07 03:56:14;;;;;;;14.95;10.55;;;17.50;95.30;;;;;;5062901;28;20043;-76
2021/09/07 03:58:41;;;;;;;17.45;13.02;;;17.40;95.30;;;;;;5083061;28;20047;-77
2021/09/07 04:01:08;;;;;;;19.00;13.25;;;17.40;95.40;;;;;;5066572;28;20051;-84
2021/09/07 04:03:35;;;;;;;20.77;15.27;;;17.40;95.50;;;;;;5062688;28;20110;-82
2021/09/07 04:06:02;;;;;;;18.35;13.63;;;17.30;95.60;;;;;;5032739;28;20048;-84
2021/09/07 04:08:29;;;;;;;18.95;12.98;;;17.20;95.70;;;;;;5035638;28;20051;-83
2021/09/07 04:10:56;;;;;;;25.50;19.63;;;17.10;95.70;;;;;;5065079;28;20031;-83
2021/09/07 04:13:23;;;;;;;19.02;14.18;;;17.10;95.80;;;;;;5031123;28;20055;-84
2021/09/07 04:15:52;;;;;;;13.18;10.73;;;17.00;95.90;;;;;;5048610;28;20051;-84
2021/09/07 04:18:18;;;;;;;16.85;12.70;;;17.00;96.00;;;;;;5043782;28;20394;-84
2021/09/07 04:20:45;;;;;;;16.70;12.43;;;16.90;96.10;;;;;;5049542;28;20070;-82
2021/09/07 04:23:11;;;;;;;15.95;12.02;;;16.90;96.30;;;;;;5063882;28;20043;-83
2021/09/07 04:25:38;;;;;;;19.83;12.88;;;16.80;96.40;;;;;;5064103;28;20383;-83
2021/09/07 04:28:04;;;;;;;19.63;11.82;;;16.70;96.50;;;;;;5048205;28;20423;-81
2021/09/07 04:30:31;;;;;;;14.45;11.50;;;16.70;96.50;;;;;;5062141;28;20055;-75
2021/09/07 04:32:57;;;;;;;16.20;12.02;;;16.70;96.60;;;;;;5078148;28;20028;-76
2021/09/07 04:35:23;;;;;;;17.13;11.88;;;16.60;96.70;;;;;;5079595;28;20032;-76
2021/09/07 04:37:50;;;;;;;15.40;12.15;;;16.60;96.80;;;;;;5080423;28;20387;-76
2021/09/07 04:40:16;;;;;;;16.23;12.10;;;16.60;96.90;;;;;;5061205;28;20039;-76
2021/09/07 04:42:43;;;;;;;15.57;11.45;;;16.50;97.20;;;;;;5058554;28;20035;-76
2021/09/07 04:45:11;;;;;;;15.35;11.68;;;16.50;97.00;;;;;;5083466;28;20035;-76
2021/09/07 04:47:38;;;;;;;17.65;12.05;;;16.50;97.40;;;;;;5081181;28;20039;-76
2021/09/07 04:50:05;;;;;;;16.65;12.55;;;16.40;97.10;;;;;;5081831;28;20586;-76
2021/09/07 04:52:32;;;;;;;17.10;11.90;;;16.40;97.20;;;;;;5047833;28;20044;-76
2021/09/07 04:54:58;;;;;;;15.45;11.80;;;16.40;97.20;;;;;;5084845;28;20043;-76
2021/09/07 04:57:25;;;;;;;17.92;12.38;;;16.40;97.30;;;;;;5061751;28;20064;-75
2021/09/07 04:59:51;;;;;;;16.70;12.43;;;16.30;97.30;;;;;;5082104;28;20039;-76
2021/09/07 05:02:18;;;;;;;16.88;12.18;;;16.30;97.30;;;;;;5080528;28;20051;-75
2021/09/07 05:04:44;;;;;;;15.52;12.45;;;16.30;97.40;;;;;;5049793;28;20056;-76
2021/09/07 05:07:11;;;;;;;17.63;12.57;;;16.30;97.40;;;;;;5063314;28;20503;-76
2021/09/07 05:09:37;;;;;;;17.83;13.02;;;16.30;97.40;;;;;;5083615;28;20032;-76
2021/09/07 05:12:04;;;;;;;17.27;12.13;;;16.30;97.40;;;;;;5063014;28;20067;-76
2021/09/07 05:14:31;;;;;;;16.63;11.45;;;16.30;97.30;;;;;;5050999;28;20410;-76
2021/09/07 05:16:57;;;;;;;18.20;12.57;;;16.30;97.30;;;;;;5085448;28;20055;-76
2021/09/07 05:19:24;;;;;;;17.08;11.77;;;16.30;97.40;;;;;;5085724;28;20514;-75
2021/09/07 05:21:50;;;;;;;18.27;12.05;;;16.30;97.40;;;;;;5085564;28;20036;-76
2021/09/07 05:24:17;;;;;;;16.00;11.65;;;16.40;97.40;;;;;;5086880;28;20032;-75
2021/09/07 05:26:43;;;;;;;14.82;11.40;;;16.40;97.50;;;;;;5084439;28;20039;-76
2021/09/07 05:29:10;;;;;;;15.05;10.68;;;16.40;97.50;;;;;;5049796;28;20048;-76
2021/09/07 05:31:36;;;;;;;14.93;11.25;;;16.40;97.50;;;;;;5084155;28;20032;-76
2021/09/07 05:34:03;;;;;;;13.93;10.93;;;16.40;97.60;;;;;;5067179;28;20043;-76
2021/09/07 05:36:29;;;;;;;13.95;10.45;;;16.40;97.40;;;;;;5084418;28;20047;-76
2021/09/07 05:38:56;;;;;;;16.08;12.15;;;16.50;97.50;;;;;;5066565;28;20592;-75
2021/09/07 05:41:22;;;;;;;14.57;11.32;;;16.50;97.50;;;;;;5067666;28;20531;-76
2021/09/07 05:43:49;;;;;;;15.52;11.70;;;16.40;97.50;;;;;;5086781;28;20036;-75
2021/09/07 05:46:15;;;;;;;18.05;11.95;;;16.50;97.60;;;;;;5083199;28;20037;-81
2021/09/07 05:48:42;;;;;;;16.65;11.38;;;16.50;97.70;;;;;;5045856;28;20033;-81
2021/09/07 05:51:09;;;;;;;15.15;11.77;;;16.50;97.70;;;;;;5068048;28;20044;-76
2021/09/07 05:53:37;;;;;;;15.32;12.18;;;16.50;97.70;;;;;;5065301;28;20043;-76
2021/09/07 05:56:04;;;;;;;15.27;11.05;;;16.50;97.70;;;;;;5064011;28;20036;-75
2021/09/07 05:58:30;;;;;;;15.13;11.38;;;16.50;97.70;;;;;;5065911;28;20059;-76
2021/09/07 06:00:57;;;;;;;15.23;11.70;;;16.50;97.70;;;;;;5084116;28;20032;-81
2021/09/07 06:03:23;;;;;;;14.95;11.43;;;16.50;97.60;;;;;;5080763;28;20036;-76
2021/09/07 06:05:51;;;;;;;17.20;11.98;;;16.60;97.60;;;;;;5051687;28;20499;-81
2021/09/07 06:08:18;;;;;;;18.35;12.52;;;16.60;97.60;;;;;;5061218;28;20051;-75
2021/09/07 06:10:44;;;;;;;16.10;11.65;;;16.70;97.60;;;;;;5063650;28;20518;-77
2021/09/07 06:13:11;;;;;;;13.05;10.63;;;16.70;97.60;;;;;;5030966;28;20040;-76
2021/09/07 06:15:41;;;;;;;14.70;11.02;;;16.80;97.50;;;;;;5082532;28;20890;-81
2021/09/07 06:18:08;;;;;;;16.70;11.52;;;16.80;97.50;;;;;;5047574;28;20070;-80
2021/09/07 06:20:34;;;;;;;15.57;11.65;;;16.90;97.50;;;;;;5068330;28;20372;-81
2021/09/07 06:23:00;;;;;;;14.90;10.90;;;17.10;97.40;;;;;;5063939;28;20621;-80
2021/09/07 06:25:27;;;;;;;15.30;11.20;;;17.30;97.30;;;;;;5083675;28;20422;-80
2021/09/07 06:27:53;;;;;;;12.77;9.98;;;17.60;97.10;;;;;;5045892;28;20048;-80
2021/09/07 06:30:20;;;;;;;15.27;11.80;;;17.90;96.80;;;;;;5082442;28;20036;-80
2021/09/07 06:32:46;;;;;;;15.38;11.13;;;18.20;96.40;;;;;;5041371;28;20403;-83
2021/09/07 06:35:13;;;;;;;15.55;11.18;;;18.50;96.10;;;;;;5061530;28;20044;-83
2021/09/07 06:37:42;;;;;;;15.80;12.45;;;18.70;95.80;;;;;;5050580;28;20047;-83
2021/09/07 06:40:09;;;;;;;17.13;12.23;;;18.90;95.50;;;;;;5027177;28;20055;-83
2021/09/07 06:42:36;;;;;;;17.90;12.23;;;19.10;95.40;;;;;;5050955;28;20051;-83
2021/09/07 06:45:03;;;;;;;18.35;12.70;;;19.20;95.20;;;;;;5050987;28;20044;-83
2021/09/07 06:47:30;;;;;;;17.27;12.25;;;19.50;95.10;;;;;;5047967;28;20403;-83
2021/09/07 06:49:56;;;;;;;15.73;11.75;;;19.60;95.00;;;;;;5069567;28;20051;-83
2021/09/07 06:52:23;;;;;;;15.48;12.63;;;19.80;94.90;;;;;;5065026;28;20036;-83
2021/09/07 06:54:50;;;;;;;18.70;13.13;;;19.90;94.80;;;;;;5056412;28;20486;-83
2021/09/07 06:57:16;;;;;;;12.98;10.80;;;20.10;94.60;;;;;;5049000;28;20060;-80
2021/09/07 06:59:42;;;;;;;15.98;12.18;;;20.10;94.50;;;;;;5067227;28;20043;-80
2021/09/07 07:02:09;;;;;;;15.95;13.13;;;20.20;94.30;;;;;;5083204;28;20035;-80
2021/09/07 07:04:35;;;;;;;16.17;12.38;;;20.30;94.20;;;;;;5050724;28;20039;-80
2021/09/07 07:07:02;;;;;;;15.77;12.40;;;20.40;94.10;;;;;;5063789;28;20347;-80
2021/09/07 07:09:28;;;;;;;20.77;14.05;;;20.40;94.00;;;;;;5040273;28;20039;-80
2021/09/07 07:11:55;;;;;;;16.42;12.75;;;20.50;93.90;;;;;;5067026;28;20051;-81
2021/09/07 07:14:21;;;;;;;17.40;12.63;;;20.60;93.90;;;;;;5065583;28;20487;-81
2021/09/07 07:16:51;;;;;;;14.10;11.32;;;20.70;93.90;;;;;;5062243;28;20491;-81
2021/09/07 07:19:18;;;;;;;17.90;13.18;;;20.80;93.80;;;;;;5065468;28;20483;-82
2021/09/07 07:21:44;;;;;;;16.95;12.60;;;20.80;93.90;;;;;;5061286;28;20510;-82
2021/09/07 07:24:11;;;;;;;16.88;12.65;;;20.90;93.50;;;;;;5032255;28;20518;-82
2021/09/07 07:26:37;;;;;;;18.13;12.57;;;21.00;93.50;;;;;;5048751;28;20059;-82
2021/09/07 07:29:04;;;;;;;17.13;11.85;;;21.00;93.40;;;;;;5064626;28;20047;-82
2021/09/07 07:31:33;;;;;;;17.88;14.02;;;21.10;93.30;;;;;;5048119;28;20041;-82
2021/09/07 07:34:01;;;;;;;19.60;14.32;;;21.20;93.30;;;;;;5076084;28;20467;-82
2021/09/07 07:36:27;;;;;;;17.98;14.10;;;21.30;93.20;;;;;;5045600;28;20044;-82
2021/09/07 07:38:54;;;;;;;21.73;14.98;;;21.30;93.20;;;;;;5041090;28;20045;-82
2021/09/07 07:41:20;;;;;;;18.77;14.63;;;21.40;93.10;;;;;;5058307;28;20043;-82
2021/09/07 07:43:47;;;;;;;16.70;14.00;;;21.50;93.20;;;;;;5066397;28;20047;-83
2021/09/07 07:46:16;;;;;;;18.38;13.55;;;21.60;93.00;;;;;;5037923;28;20059;-83
2021/09/07 07:48:43;;;;;;;19.30;14.13;;;21.80;92.90;;;;;;5053459;28;20048;-83
2021/09/07 07:51:11;;;;;;;20.30;14.32;;;21.90;92.70;;;;;;5020173;28;20055;-83
2021/09/07 07:53:38;;;;;;;17.05;13.82;;;22.20;92.50;;;;;;5042934;28;20048;-82
2021/09/07 07:56:05;;;;;;;17.70;14.18;;;22.40;92.30;;;;;;5072005;28;20029;-85
2021/09/07 07:58:31;;;;;;;17.10;14.18;;;22.80;92.00;;;;;;5082860;28;20028;-82
2021/09/07 08:00:58;;;;;;;17.67;14.43;;;23.00;91.50;;;;;;5049419;28;20040;-83
2021/09/07 08:03:25;;;;;;;18.75;14.73;;;23.30;91.00;;;;;;5062221;28;20040;-82
2021/09/07 08:05:51;;;;;;;17.95;14.10;;;23.50;90.60;;;;;;5064444;28;20043;-82
2021/09/07 08:08:18;;;;;;;16.30;13.40;;;23.80;90.30;;;;;;5032681;28;20051;-83
2021/09/07 08:10:44;;;;;;;17.27;13.82;;;23.90;89.70;;;;;;5065033;28;20055;-82
2021/09/07 08:13:11;;;;;;;17.63;13.63;;;24.10;89.00;;;;;;5049121;28;20040;-82
2021/09/07 08:15:37;;;;;;;16.35;13.80;;;24.30;87.40;;;;;;5051759;28;20036;-83
2021/09/07 08:18:04;;;;;;;15.25;12.48;;;24.40;86.80;;;;;;5046703;28;20032;-77
2021/09/07 08:20:31;;;;;;;16.02;12.73;;;24.30;85.90;;;;;;5064372;28;20032;-77
2021/09/07 08:23:00;;;;;;;16.70;13.02;;;24.30;85.70;;;;;;5064754;28;20051;-77
2021/09/07 08:25:27;;;;;;;13.90;11.52;;;24.30;85.80;;;;;;5063695;28;20051;-77
2021/09/07 08:27:53;;;;;;;13.13;11.75;;;24.40;85.70;;;;;;5081476;28;20039;-78
2021/09/07 08:30:20;;;;;;;14.40;12.30;;;24.50;85.10;;;;;;5065077;28;20043;-77
2021/09/07 08:32:46;;;;;;;17.50;13.25;;;24.60;84.60;;;;;;5064268;28;20032;-77
2021/09/07 08:35:13;;;;;;;17.08;13.20;;;24.70;84.10;;;;;;5082267;28;20043;-77
2021/09/07 08:37:41;;;;;;;15.85;12.93;;;24.70;83.90;;;;;;5048487;28;20559;-77
2021/09/07 08:40:10;;;;;;;14.90;11.82;;;24.80;83.70;;;;;;5081189;28;20035;-76
2021/09/07 08:42:37;;;;;;;13.00;10.73;;;24.90;83.60;;;;;;5082233;28;20168;-77
2021/09/07 08:45:06;;;;;;;13.60;10.98;;;25.00;83.50;;;;;;5046169;28;20039;-77
2021/09/07 08:47:32;;;;;;;14.65;11.10;;;25.00;82.70;;;;;;5046429;28;20044;-77
2021/09/07 08:50:01;;;;;;;12.23;10.93;;;25.10;81.80;;;;;;5030976;28;20399;-78
2021/09/07 08:52:28;;;;;;;12.50;10.63;;;25.10;81.30;;;;;;5044815;28;20048;-86
2021/09/07 08:54:54;;;;;;;14.48;11.30;;;25.10;80.70;;;;;;5047608;28;20040;-86
2021/09/07 08:57:21;;;;;;;12.15;10.85;;;25.10;79.90;;;;;;5049436;28;20050;-85
2021/09/07 08:59:58;;;;;;;13.38;10.13;;;25.20;80.00;;;;;;5017365;28;20053;-86
2021/09/07 09:02:27;;;;;;;14.30;11.02;;;25.20;79.80;;;;;;5081089;28;20479;-86
2021/09/07 09:04:58;;;;;;;14.85;11.48;;;25.30;79.80;;;;;;5083834;28;20028;-86
2021/09/07 09:07:28;;;;;;;11.80;9.57;;;25.40;79.40;;;;;;5056054;28;20403;-85
2021/09/07 09:09:56;;;;;;;12.35;9.98;;;25.40;78.90;;;;;;5051900;28;20390;-86
2021/09/07 09:12:31;;;;;;;11.23;9.80;;;25.40;78.20;;;;;;5068309;28;20047;-85
2021/09/07 09:14:58;;;;;;;12.45;9.70;;;25.40;77.60;;;;;;5086234;28;20383;-85
2021/09/07 09:17:27;;;;;;;10.27;8.70;;;25.40;77.50;;;;;;5051352;28;20491;-85
2021/09/07 09:20:17;;;;;;;12.65;9.80;;;25.40;77.50;;;;;;5052842;28;20036;-85
2021/09/07 09:22:48;;;;;;;10.57;9.48;;;25.30;77.80;;;;;;5061495;28;20071;-85
2021/09/07 09:25:21;;;;;;;13.57;10.60;;;25.40;78.00;;;;;;5067196;28;20059;-86
2021/09/07 09:27:49;;;;;;;14.07;10.35;;;25.50;77.80;;;;;;5050940;28;20036;-85
2021/09/07 09:30:23;;;;;;;12.85;11.07;;;25.60;76.90;;;;;;5065337;28;20028;-86
2021/09/07 09:32:50;;;;;;;15.05;11.52;;;25.80;76.50;;;;;;5050828;28;20407;-86
2021/09/07 09:35:17;;;;;;;16.50;12.50;;;25.80;76.50;;;;;;5061989;28;20028;-87
2021/09/07 09:38:05;;;;;;;13.82;12.27;;;25.90;76.50;;;;;;5063079;28;20098;-88
2021/09/07 09:40:33;;;;;;;13.60;11.20;;;26.00;76.50;;;;;;5051947;28;20051;-77
2021/09/07 09:43:20;;;;;;;17.02;12.70;;;26.10;76.70;;;;;;5030725;28;20047;-78
2021/09/07 09:45:46;;;;;;;14.80;11.18;;;26.10;75.90;;;;;;5049836;28;20032;-80
2021/09/07 09:48:29;;;;;;;17.15;14.35;;;26.20;75.80;;;;;;5031040;28;20048;-79
2021/09/07 09:50:58;;;;;;;13.05;11.63;;;26.20;75.60;;;;;;5032191;28;20043;-78
2021/09/07 09:53:26;;;;;;;14.50;12.52;;;26.30;75.40;;;;;;5085750;28;20047;-77
2021/09/07 09:55:54;;;;;;;15.43;13.32;;;26.40;74.30;;;;;;5065328;28;20036;-77
2021/09/07 09:58:22;;;;;;;14.23;11.57;;;26.40;72.80;;;;;;5037344;28;20036;-78
2021/09/07 10:00:50;;;;;;;11.50;10.18;;;26.40;72.20;;;;;;5033725;28;20048;-78
2021/09/07 10:03:18;;;;;;;13.95;12.48;;;26.50;72.00;;;;;;5032018;28;20383;-77
2021/09/07 10:05:46;;;;;;;14.23;12.15;;;26.50;72.10;;;;;;5047615;28;20039;-77
2021/09/07 10:08:15;;;;;;;15.07;12.07;;;26.70;72.50;;;;;;5049511;28;20051;-77
2021/09/07 10:10:55;;;;;;;17.65;14.13;;;26.70;72.10;;;;;;5033450;28;20047;-77
2021/09/07 10:13:24;;;;;;;17.10;13.82;;;26.90;71.70;;;;;;5048505;28;20475;-77
2021/09/07 10:16:08;;;;;;;16.10;13.52;;;26.90;71.30;;;;;;5033866;28;20499;-77
2021/09/07 10:26:39;;;;;;;13.25;11.82;;;27.50;70.80;;;;;;5032144;28;20526;-77
2021/09/07 10:29:21;;;;;;;14.88;12.45;;;27.70;69.90;;;;;;5061243;28;20036;-77
2021/09/07 10:31:53;;;;;;;13.05;10.52;;;27.90;69.60;;;;;;5066762;28;20051;-78
2021/09/07 10:34:25;;;;;;;14.18;11.20;;;28.20;69.60;;;;;;5063339;28;20028;-79
2021/09/07 10:37:00;;;;;;;13.23;10.35;;;28.50;69.10;;;;;;5063321;28;20032;-78
2021/09/07 10:39:36;;;;;;;13.25;11.18;;;28.90;68.20;;;;;;5060561;28;20365;-78
2021/09/07 10:42:07;;;;;;;12.60;10.88;;;29.20;67.10;;;;;;5061401;28;20043;-77
2021/09/07 10:44:36;;;;;;;14.02;11.52;;;29.50;66.30;;;;;;5047798;28;20391;-77
2021/09/07 10:47:09;;;;;;;12.75;10.70;;;29.70;66.00;;;;;;5024893;28;20499;-78
2021/09/07 10:49:47;;;;;;;12.50;11.20;;;30.00;65.00;;;;;;5063925;28;20043;-77
2021/09/07 10:52:15;;;;;;;11.98;10.02;;;30.00;63.70;;;;;;5048168;28;20515;-77
2021/09/07 10:55:09;;;;;;;14.10;11.27;;;30.20;64.30;;;;;;5058440;28;20036;-78
2021/09/07 10:57:40;;;;;;;13.13;11.73;;;30.50;63.70;;;;;;5030280;28;20051;-78
2021/09/07 11:00:22;;;;;;;14.40;11.38;;;30.70;62.90;;;;;;5082064;28;20394;-85
2021/09/07 11:03:04;;;;;;;13.80;12.35;;;31.00;62.00;;;;;;5060125;28;20047;-83
2021/09/07 11:05:34;;;;;;;12.40;11.05;;;31.10;59.60;;;;;;5050941;28;20077;-84
2021/09/07 11:08:12;;;;;;;12.32;9.85;;;31.20;60.30;;;;;;5060752;28;20043;-85
2021/09/07 11:10:51;;;;;;;12.38;9.60;;;31.40;60.40;;;;;;5059236;28;20047;-85
2021/09/07 11:13:29;;;;;;;12.60;10.65;;;31.70;60.40;;;;;;5051623;28;20516;-87
2021/09/07 11:16:01;;;;;;;13.93;12.18;;;31.90;59.50;;;;;;5063333;28;20576;-86
2021/09/07 11:18:35;;;;;;;13.20;11.35;;;32.10;58.40;;;;;;5049437;28;20047;-87
2021/09/07 11:21:07;;;;;;;15.95;11.35;;;32.40;57.90;;;;;;5069717;28;20059;-87
2021/09/07 11:23:38;;;;;;;14.60;11.00;;;32.50;57.30;;;;;;5048361;28;20044;-87
2021/09/07 11:26:13;;;;;;;11.40;9.43;;;32.70;56.00;;;;;;5066877;28;20039;-87
2021/09/07 11:28:45;;;;;;;12.95;10.63;;;32.80;56.00;;;;;;5064355;28;20390;-87
2021/09/07 11:31:12;;;;;;;10.63;9.20;;;33.00;55.80;;;;;;5067235;28;20028;-87
2021/09/07 11:33:40;;;;;;;10.30;9.30;;;33.10;54.90;;;;;;5051620;28;20036;-87
2021/09/07 11:36:15;;;;;;;10.40;8.68;;;33.30;54.50;;;;;;5066689;28;20035;-87
2021/09/07 11:38:47;;;;;;;10.52;9.52;;;33.50;53.60;;;;;;5064924;28;20044;-87
2021/09/07 11:41:22;;;;;;;11.18;9.23;;;33.70;52.80;;;;;;5062082;28;20044;-87
2021/09/07 11:43:56;;;;;;;12.35;9.70;;;33.90;53.00;;;;;;5064185;28;20023;-87
2021/09/07 11:46:32;;;;;;;10.10;9.20;;;34.20;52.40;;;;;;5083101;28;20032;-86
2021/09/07 11:49:07;;;;;;;9.60;8.63;;;34.40;51.50;;;;;;5048358;28;20040;-87
2021/09/07 11:51:37;;;;;;;9.55;8.52;;;34.60;50.90;;;;;;5049574;28;20047;-87
2021/09/07 11:54:07;;;;;;;9.13;8.32;;;34.70;49.60;;;;;;5084660;28;20035;-87
2021/09/07 11:56:35;;;;;;;9.02;8.13;;;34.90;49.70;;;;;;5034423;28;20051;-87
2021/09/07 11:59:15;;;;;;;9.95;8.80;;;34.90;48.50;;;;;;5056526;28;20047;-87
2021/09/07 12:01:50;;;;;;;9.13;8.13;;;35.00;48.00;;;;;;5079208;28;20040;-86
2021/09/07 12:04:18;;;;;;;12.68;11.45;;;35.10;48.00;;;;;;5067562;28;20055;-87
2021/09/07 12:06:49;;;;;;;9.23;8.32;;;35.10;46.70;;;;;;5087598;28;20051;-87
2021/09/07 12:09:27;;;;;;;8.57;7.65;;;34.90;47.90;;;;;;5081946;28;20043;-87
2021/09/07 12:12:10;;;;;;;8.60;7.47;;;35.00;48.20;;;;;;5049730;28;20048;-87
2021/09/07 12:14:53;;;;;;;7.65;6.85;;;35.20;47.50;;;;;;5085715;28;20032;-87
2021/09/07 12:17:22;;;;;;;9.43;7.25;;;35.20;47.50;;;;;;5033465;28;20574;-87
2021/09/07 12:19:50;;;;;;;8.15;7.35;;;35.30;47.30;;;;;;5085256;28;20043;-87
2021/09/07 12:22:20;;;;;;;9.65;7.63;;;35.50;47.20;;;;;;5069339;28;20037;-87
2021/09/07 12:25:09;;;;;;;8.27;7.43;;;35.80;47.50;;;;;;5037535;28;20390;-87
2021/09/07 12:27:49;;;;;;;8.23;7.25;;;36.10;46.40;;;;;;5054106;28;20036;-88
2021/09/07 12:30:22;;;;;;;9.53;8.00;;;36.20;45.90;;;;;;5049688;28;20044;-88
2021/09/07 12:32:57;;;;;;;8.15;7.35;;;36.30;45.30;;;;;;5066245;28;20040;-88
2021/09/07 12:35:32;;;;;;;8.25;7.45;;;36.30;44.80;;;;;;5067790;28;20040;-88
2021/09/07 12:38:12;;;;;;;7.38;6.68;;;36.50;44.60;;;;;;5068990;28;20047;-88
2021/09/07 12:40:45;;;;;;;7.70;6.90;;;36.70;45.30;;;;;;5034947;28;20047;-88
2021/09/07 12:43:13;;;;;;;9.15;7.63;;;36.90;44.40;;;;;;5086491;28;20265;-87
2021/09/07 12:45:40;;;;;;;8.68;7.68;;;37.00;43.50;;;;;;5050878;28;20901;-87
2021/09/07 12:48:09;;;;;;;7.85;6.70;;;37.00;43.70;;;;;;5066889;28;20039;-87